sensor_id;sensor_type;location;lat;lon;timestamp;temperature;humidity
13123;DHT22;6627;50.920;12.050;2023-01-23T00:01:10;1.30;99.90
13123;DHT22;6627;50.920;12.050;2023-01-23T00:03:39;1.30;99.90
13123;DHT22;6627;50.920;12.050;2023-01-23T00:06:10;1.30;99.90
13123;DHT22;6627;50.920;12.050;2023-01-23T00:08:43;1.30;99.90
13123;DHT22;6627;50.920;12.050;2023-01-23T00:11:16;1.30;99.90
13123;DHT22;6627;50.920;12.050;2023-01-23T00:13:45;2.70;99.90
13123;DHT22;6627;50.920;12.050;2023-01-23T00:16:14;1.30;99.90
13123;DHT22;6627;50.920;12.050;2023-01-23T00:18:43;1.30;99.90
13123;DHT22;6627;50.920;12.050;2023-01-23T00:21:13;1.30;99.90
13123;DHT22;6627;50.920;12.050;2023-01-23T00:23:43;1.30;99.90
13123;DHT22;6627;50.920;12.050;2023-01-23T00:26:15;1.30;99.90
13123;DHT22;6627;50.920;12.050;2023-01-23T00:28:45;1.30;99.90
13123;DHT22;6627;50.920;12.050;2023-01-23T00:31:15;1.30;99.90
13123;DHT22;6627;50.920;12.050;2023-01-23T00:33:45;1.30;99.90
13123;DHT22;6627;50.920;12.050;2023-01-23T00:36:14;1.30;99.90
13123;DHT22;6627;50.920;12.050;2023-01-23T00:38:41;1.30;99.90
13123;DHT22;6627;50.920;12.050;2023-01-23T00:41:08;1.30;99.90
13123;DHT22;6627;50.920;12.050;2023-01-23T00:43:38;1.30;99.90
13123;DHT22;6627;50.920;12.050;2023-01-23T00:46:06;1.30;99.90
13123;DHT22;6627;50.920;12.050;2023-01-23T00:48:33;1.30;99.90
13123;DHT22;6627;50.920;12.050;2023-01-23T00:51:00;1.30;99.90
13123;DHT22;6627;50.920;12.050;2023-01-23T00:53:28;1.30;99.90
13123;DHT22;6627;50.920;12.050;2023-01-23T00:55:55;1.30;99.90
13123;DHT22;6627;50.920;12.050;2023-01-23T00:58:22;1.30;99.90
13123;DHT22;6627;50.920;12.050;2023-01-23T01:00:51;1.30;99.90
13123;DHT22;6627;50.920;12.050;2023-01-23T01:03:19;1.30;99.90
13123;DHT22;6627;50.920;12.050;2023-01-23T01:05:46;1.30;99.90
13123;DHT22;6627;50.920;12.050;2023-01-23T01:08:14;1.30;99.90
13123;DHT22;6627;50.920;12.050;2023-01-23T01:10:41;1.30;99.90
13123;DHT22;6627;50.920;12.050;2023-01-23T01:13:09;1.30;99.90
13123;DHT22;6627;50.920;12.050;2023-01-23T01:15:37;1.30;99.90
13123;DHT22;6627;50.920;12.050;2023-01-23T01:18:05;1.30;99.90
13123;DHT22;6627;50.920;12.050;2023-01-23T01:20:33;1.30;99.90
13123;DHT22;6627;50.920;12.050;2023-01-23T01:23:00;1.30;99.90
13123;DHT22;6627;50.920;12.050;2023-01-23T01:25:29;1.30;99.90
13123;DHT22;6627;50.920;12.050;2023-01-23T01:27:56;1.30;99.90
13123;DHT22;6627;50.920;12.050;2023-01-23T01:30:23;1.30;99.90
13123;DHT22;6627;50.920;12.050;2023-01-23T01:32:53;1.30;99.90
13123;DHT22;6627;50.920;12.050;2023-01-23T01:35:23;1.30;99.90
13123;DHT22;6627;50.920;12.050;2023-01-23T01:37:51;1.30;99.90
13123;DHT22;6627;50.920;12.050;2023-01-23T01:40:20;1.30;99.90
13123;DHT22;6627;50.920;12.050;2023-01-23T01:42:53;1.40;99.90
13123;DHT22;6627;50.920;12.050;2023-01-23T01:48:42;1.30;99.90
13123;DHT22;6627;50.920;12.050;2023-01-23T01:51:20;1.30;99.90
13123;DHT22;6627;50.920;12.050;2023-01-23T01:53:55;1.30;99.90
13123;DHT22;6627;50.920;12.050;2023-01-23T01:56:28;1.30;99.90
13123;DHT22;6627;50.920;12.050;2023-01-23T01:58:59;1.30;99.90
13123;DHT22;6627;50.920;12.050;2023-01-23T02:01:28;1.30;99.90
13123;DHT22;6627;50.920;12.050;2023-01-23T02:03:56;1.30;99.90
13123;DHT22;6627;50.920;12.050;2023-01-23T02:06:25;1.30;99.90
13123;DHT22;6627;50.920;12.050;2023-01-23T02:08:57;1.30;99.90
13123;DHT22;6627;50.920;12.050;2023-01-23T02:11:28;1.30;99.90
13123;DHT22;6627;50.920;12.050;2023-01-23T02:13:56;1.30;99.90
13123;DHT22;6627;50.920;12.050;2023-01-23T02:16:26;1.30;99.90
13123;DHT22;6627;50.920;12.050;2023-01-23T02:18:58;1.30;99.90
13123;DHT22;6627;50.920;12.050;2023-01-23T02:21:29;1.30;99.90
13123;DHT22;6627;50.920;12.050;2023-01-23T02:24:13;1.30;99.90
13123;DHT22;6627;50.920;12.050;2023-01-23T02:26:47;1.30;99.90
13123;DHT22;6627;50.920;12.050;2023-01-23T02:29:15;1.30;99.90
13123;DHT22;6627;50.920;12.050;2023-01-23T02:31:44;1.30;99.90
13123;DHT22;6627;50.920;12.050;2023-01-23T02:34:12;1.30;99.90
13123;DHT22;6627;50.920;12.050;2023-01-23T02:36:45;1.30;99.90
13123;DHT22;6627;50.920;12.050;2023-01-23T02:39:15;1.30;99.90
13123;DHT22;6627;50.920;12.050;2023-01-23T02:41:48;1.30;99.90
13123;DHT22;6627;50.920;12.050;2023-01-23T02:44:19;1.30;99.90
13123;DHT22;6627;50.920;12.050;2023-01-23T02:46:51;1.30;99.90
13123;DHT22;6627;50.920;12.050;2023-01-23T02:49:19;1.30;99.90
13123;DHT22;6627;50.920;12.050;2023-01-23T02:51:47;1.30;99.90
13123;DHT22;6627;50.920;12.050;2023-01-23T02:54:15;1.30;99.90
13123;DHT22;6627;50.920;12.050;2023-01-23T02:56:43;1.30;99.90
13123;DHT22;6627;50.920;12.050;2023-01-23T02:59:13;1.30;99.90
13123;DHT22;6627;50.920;12.050;2023-01-23T03:01:58;1.30;99.90
13123;DHT22;6627;50.920;12.050;2023-01-23T03:04:25;1.30;99.90
13123;DHT22;6627;50.920;12.050;2023-01-23T03:06:52;1.30;99.90
13123;DHT22;6627;50.920;12.050;2023-01-23T03:09:19;1.30;99.90
13123;DHT22;6627;50.920;12.050;2023-01-23T03:11:47;1.30;99.90
13123;DHT22;6627;50.920;12.050;2023-01-23T03:14:18;1.30;99.90
13123;DHT22;6627;50.920;12.050;2023-01-23T03:16:48;1.30;99.90
13123;DHT22;6627;50.920;12.050;2023-01-23T03:19:18;1.30;99.90
13123;DHT22;6627;50.920;12.050;2023-01-23T03:21:47;1.30;99.90
13123;DHT22;6627;50.920;12.050;2023-01-23T03:24:16;1.30;99.90
13123;DHT22;6627;50.920;12.050;2023-01-23T03:26:45;1.30;99.90
13123;DHT22;6627;50.920;12.050;2023-01-23T03:29:15;1.30;99.90
13123;DHT22;6627;50.920;12.050;2023-01-23T03:32:03;1.30;99.90
13123;DHT22;6627;50.920;12.050;2023-01-23T03:34:32;1.30;99.90
13123;DHT22;6627;50.920;12.050;2023-01-23T03:37:00;1.30;99.90
13123;DHT22;6627;50.920;12.050;2023-01-23T03:39:28;1.30;99.90
13123;DHT22;6627;50.920;12.050;2023-01-23T03:42:12;1.30;99.90
13123;DHT22;6627;50.920;12.050;2023-01-23T03:44:41;1.30;99.90
13123;DHT22;6627;50.920;12.050;2023-01-23T03:47:09;1.30;99.90
13123;DHT22;6627;50.920;12.050;2023-01-23T03:49:36;1.30;99.90
13123;DHT22;6627;50.920;12.050;2023-01-23T03:52:03;1.30;99.90
13123;DHT22;6627;50.920;12.050;2023-01-23T03:54:31;1.30;99.90
13123;DHT22;6627;50.920;12.050;2023-01-23T03:56:58;1.20;99.90
13123;DHT22;6627;50.920;12.050;2023-01-23T03:59:27;1.20;99.90
13123;DHT22;6627;50.920;12.050;2023-01-23T04:01:55;1.30;99.90
13123;DHT22;6627;50.920;12.050;2023-01-23T04:04:23;1.30;99.90
13123;DHT22;6627;50.920;12.050;2023-01-23T04:06:50;1.30;99.90
13123;DHT22;6627;50.920;12.050;2023-01-23T04:09:17;1.20;99.90
13123;DHT22;6627;50.920;12.050;2023-01-23T04:11:44;1.30;99.90
13123;DHT22;6627;50.920;12.050;2023-01-23T04:14:12;1.20;99.90
13123;DHT22;6627;50.920;12.050;2023-01-23T04:16:39;1.30;99.90
13123;DHT22;6627;50.920;12.050;2023-01-23T04:19:08;1.20;99.90
13123;DHT22;6627;50.920;12.050;2023-01-23T04:21:35;1.20;99.90
13123;DHT22;6627;50.920;12.050;2023-01-23T04:24:02;1.30;99.90
13123;DHT22;6627;50.920;12.050;2023-01-23T04:26:30;1.20;99.90
13123;DHT22;6627;50.920;12.050;2023-01-23T04:28:59;1.20;99.90
13123;DHT22;6627;50.920;12.050;2023-01-23T04:31:26;1.30;99.90
13123;DHT22;6627;50.920;12.050;2023-01-23T04:33:57;1.30;99.90
13123;DHT22;6627;50.920;12.050;2023-01-23T04:36:26;1.30;99.90
13123;DHT22;6627;50.920;12.050;2023-01-23T04:38:53;1.30;99.90
13123;DHT22;6627;50.920;12.050;2023-01-23T04:41:24;1.30;99.90
13123;DHT22;6627;50.920;12.050;2023-01-23T04:43:52;1.30;99.90
13123;DHT22;6627;50.920;12.050;2023-01-23T04:46:20;1.30;99.90
13123;DHT22;6627;50.920;12.050;2023-01-23T04:48:48;1.20;99.90
13123;DHT22;6627;50.920;12.050;2023-01-23T04:51:15;1.20;99.90
13123;DHT22;6627;50.920;12.050;2023-01-23T04:53:43;1.30;99.90
13123;DHT22;6627;50.920;12.050;2023-01-23T04:56:10;1.30;99.90
13123;DHT22;6627;50.920;12.050;2023-01-23T04:58:38;1.30;99.90
13123;DHT22;6627;50.920;12.050;2023-01-23T05:01:06;1.20;99.90
13123;DHT22;6627;50.920;12.050;2023-01-23T05:03:33;1.30;99.90
13123;DHT22;6627;50.920;12.050;2023-01-23T05:06:02;1.30;99.90
13123;DHT22;6627;50.920;12.050;2023-01-23T05:08:29;1.30;99.90
13123;DHT22;6627;50.920;12.050;2023-01-23T05:10:58;1.30;99.90
13123;DHT22;6627;50.920;12.050;2023-01-23T05:13:25;1.30;99.90
13123;DHT22;6627;50.920;12.050;2023-01-23T05:15:53;1.20;99.90
13123;DHT22;6627;50.920;12.050;2023-01-23T05:18:20;1.20;99.90
13123;DHT22;6627;50.920;12.050;2023-01-23T05:20:51;1.20;99.90
13123;DHT22;6627;50.920;12.050;2023-01-23T05:23:19;1.20;99.90
13123;DHT22;6627;50.920;12.050;2023-01-23T05:25:47;1.20;99.90
13123;DHT22;6627;50.920;12.050;2023-01-23T05:28:15;1.30;99.90
13123;DHT22;6627;50.920;12.050;2023-01-23T05:30:43;1.30;99.90
13123;DHT22;6627;50.920;12.050;2023-01-23T05:33:10;1.20;99.90
13123;DHT22;6627;50.920;12.050;2023-01-23T05:35:38;1.20;99.90
13123;DHT22;6627;50.920;12.050;2023-01-23T05:38:06;1.20;99.90
13123;DHT22;6627;50.920;12.050;2023-01-23T05:40:33;1.20;99.90
13123;DHT22;6627;50.920;12.050;2023-01-23T05:43:01;1.30;99.90
13123;DHT22;6627;50.920;12.050;2023-01-23T05:45:30;1.20;99.90
13123;DHT22;6627;50.920;12.050;2023-01-23T05:47:59;1.20;99.90
13123;DHT22;6627;50.920;12.050;2023-01-23T05:50:26;1.20;99.90
13123;DHT22;6627;50.920;12.050;2023-01-23T05:52:54;1.20;99.90
13123;DHT22;6627;50.920;12.050;2023-01-23T05:55:21;1.30;99.90
13123;DHT22;6627;50.920;12.050;2023-01-23T05:57:48;1.30;99.90
13123;DHT22;6627;50.920;12.050;2023-01-23T06:00:17;1.30;99.90
13123;DHT22;6627;50.920;12.050;2023-01-23T06:02:46;1.30;99.90
13123;DHT22;6627;50.920;12.050;2023-01-23T06:05:14;1.20;99.90
13123;DHT22;6627;50.920;12.050;2023-01-23T06:07:41;1.30;99.90
13123;DHT22;6627;50.920;12.050;2023-01-23T06:10:09;1.20;99.90
13123;DHT22;6627;50.920;12.050;2023-01-23T06:12:36;1.20;99.90
13123;DHT22;6627;50.920;12.050;2023-01-23T06:15:04;1.20;99.90
13123;DHT22;6627;50.920;12.050;2023-01-23T06:17:33;1.20;99.90
13123;DHT22;6627;50.920;12.050;2023-01-23T06:20:02;1.20;99.90
13123;DHT22;6627;50.920;12.050;2023-01-23T06:22:30;1.20;99.90
13123;DHT22;6627;50.920;12.050;2023-01-23T06:24:57;1.20;99.90
13123;DHT22;6627;50.920;12.050;2023-01-23T06:27:24;1.20;99.90
13123;DHT22;6627;50.920;12.050;2023-01-23T06:29:51;1.20;99.90
13123;DHT22;6627;50.920;12.050;2023-01-23T06:32:19;1.30;99.90
13123;DHT22;6627;50.920;12.050;2023-01-23T06:34:48;1.20;99.90
13123;DHT22;6627;50.920;12.050;2023-01-23T06:37:16;1.20;99.90
13123;DHT22;6627;50.920;12.050;2023-01-23T06:39:44;1.20;99.90
13123;DHT22;6627;50.920;12.050;2023-01-23T06:42:11;1.20;99.90
13123;DHT22;6627;50.920;12.050;2023-01-23T06:44:38;1.30;99.90
13123;DHT22;6627;50.920;12.050;2023-01-23T06:47:05;1.20;99.90
13123;DHT22;6627;50.920;12.050;2023-01-23T06:49:33;1.30;99.90
13123;DHT22;6627;50.920;12.050;2023-01-23T06:52:00;1.30;99.90
13123;DHT22;6627;50.920;12.050;2023-01-23T06:54:28;1.30;99.90
13123;DHT22;6627;50.920;12.050;2023-01-23T06:56:56;1.30;99.90
13123;DHT22;6627;50.920;12.050;2023-01-23T06:59:23;1.30;99.90
13123;DHT22;6627;50.920;12.050;2023-01-23T07:01:50;1.30;99.90
13123;DHT22;6627;50.920;12.050;2023-01-23T07:04:18;1.30;99.90
13123;DHT22;6627;50.920;12.050;2023-01-23T07:06:45;1.30;99.90
13123;DHT22;6627;50.920;12.050;2023-01-23T07:09:12;1.30;99.90
13123;DHT22;6627;50.920;12.050;2023-01-23T07:11:41;1.30;99.90
13123;DHT22;6627;50.920;12.050;2023-01-23T07:14:08;1.30;99.90
13123;DHT22;6627;50.920;12.050;2023-01-23T07:16:36;1.30;99.90
13123;DHT22;6627;50.920;12.050;2023-01-23T07:19:03;1.30;99.90
13123;DHT22;6627;50.920;12.050;2023-01-23T07:21:30;1.30;99.90
13123;DHT22;6627;50.920;12.050;2023-01-23T07:23:57;1.30;99.90
13123;DHT22;6627;50.920;12.050;2023-01-23T07:26:25;1.30;99.90
13123;DHT22;6627;50.920;12.050;2023-01-23T07:28:54;1.40;99.90
13123;DHT22;6627;50.920;12.050;2023-01-23T07:31:23;1.30;99.90
13123;DHT22;6627;50.920;12.050;2023-01-23T07:33:50;1.30;99.90
13123;DHT22;6627;50.920;12.050;2023-01-23T07:36:17;1.30;99.90
13123;DHT22;6627;50.920;12.050;2023-01-23T07:38:49;1.30;99.90
13123;DHT22;6627;50.920;12.050;2023-01-23T07:41:16;1.30;99.90
13123;DHT22;6627;50.920;12.050;2023-01-23T07:43:43;1.40;99.90
13123;DHT22;6627;50.920;12.050;2023-01-23T07:46:11;1.40;99.90
13123;DHT22;6627;50.920;12.050;2023-01-23T07:48:39;1.40;99.90
13123;DHT22;6627;50.920;12.050;2023-01-23T07:51:06;1.40;99.90
13123;DHT22;6627;50.920;12.050;2023-01-23T07:53:33;1.40;99.90
13123;DHT22;6627;50.920;12.050;2023-01-23T07:56:03;1.40;99.90
13123;DHT22;6627;50.920;12.050;2023-01-23T07:58:31;1.40;99.90
13123;DHT22;6627;50.920;12.050;2023-01-23T08:00:58;1.40;99.90
13123;DHT22;6627;50.920;12.050;2023-01-23T08:03:27;1.40;99.90
13123;DHT22;6627;50.920;12.050;2023-01-23T08:05:54;1.30;99.90
13123;DHT22;6627;50.920;12.050;2023-01-23T08:08:22;1.40;99.90
13123;DHT22;6627;50.920;12.050;2023-01-23T08:10:49;1.40;99.90
13123;DHT22;6627;50.920;12.050;2023-01-23T08:13:16;1.40;99.90
13123;DHT22;6627;50.920;12.050;2023-01-23T08:15:43;1.40;99.90
13123;DHT22;6627;50.920;12.050;2023-01-23T08:18:11;1.40;99.90
13123;DHT22;6627;50.920;12.050;2023-01-23T08:20:39;1.40;99.90
13123;DHT22;6627;50.920;12.050;2023-01-23T08:23:06;1.40;99.90
13123;DHT22;6627;50.920;12.050;2023-01-23T08:25:34;1.40;99.90
13123;DHT22;6627;50.920;12.050;2023-01-23T08:28:04;1.40;99.90
13123;DHT22;6627;50.920;12.050;2023-01-23T08:30:31;1.40;99.90
13123;DHT22;6627;50.920;12.050;2023-01-23T08:32:58;1.50;99.90
13123;DHT22;6627;50.920;12.050;2023-01-23T08:35:26;1.50;99.90
13123;DHT22;6627;50.920;12.050;2023-01-23T08:37:55;1.40;99.90
13123;DHT22;6627;50.920;12.050;2023-01-23T08:40:22;1.50;99.90
13123;DHT22;6627;50.920;12.050;2023-01-23T08:42:49;1.50;99.90
13123;DHT22;6627;50.920;12.050;2023-01-23T08:45:16;1.50;99.90
13123;DHT22;6627;50.920;12.050;2023-01-23T08:47:43;1.50;99.90
13123;DHT22;6627;50.920;12.050;2023-01-23T08:50:11;1.50;99.90
13123;DHT22;6627;50.920;12.050;2023-01-23T08:52:38;1.50;99.90
13123;DHT22;6627;50.920;12.050;2023-01-23T08:55:08;1.50;99.90
13123;DHT22;6627;50.920;12.050;2023-01-23T08:57:37;1.50;99.90
13123;DHT22;6627;50.920;12.050;2023-01-23T09:00:06;1.60;99.90
13123;DHT22;6627;50.920;12.050;2023-01-23T09:02:35;1.60;99.90
13123;DHT22;6627;50.920;12.050;2023-01-23T09:05:03;1.60;99.90
13123;DHT22;6627;50.920;12.050;2023-01-23T09:07:31;1.60;99.90
13123;DHT22;6627;50.920;12.050;2023-01-23T09:10:01;1.60;99.90
13123;DHT22;6627;50.920;12.050;2023-01-23T09:12:30;1.60;99.90
13123;DHT22;6627;50.920;12.050;2023-01-23T09:14:58;1.60;99.90
13123;DHT22;6627;50.920;12.050;2023-01-23T09:17:26;1.60;99.90
13123;DHT22;6627;50.920;12.050;2023-01-23T09:19:54;1.70;99.90
13123;DHT22;6627;50.920;12.050;2023-01-23T09:22:21;1.70;99.90
13123;DHT22;6627;50.920;12.050;2023-01-23T09:24:48;1.70;99.90
13123;DHT22;6627;50.920;12.050;2023-01-23T09:27:15;1.80;99.90
13123;DHT22;6627;50.920;12.050;2023-01-23T09:29:44;1.80;99.90
13123;DHT22;6627;50.920;12.050;2023-01-23T09:32:11;1.80;99.90
13123;DHT22;6627;50.920;12.050;2023-01-23T09:34:38;1.80;99.90
13123;DHT22;6627;50.920;12.050;2023-01-23T09:37:05;1.80;99.90
13123;DHT22;6627;50.920;12.050;2023-01-23T09:39:32;1.80;99.90
13123;DHT22;6627;50.920;12.050;2023-01-23T09:42:02;1.80;99.90
13123;DHT22;6627;50.920;12.050;2023-01-23T09:44:37;1.80;99.90
13123;DHT22;6627;50.920;12.050;2023-01-23T09:47:12;1.80;99.90
13123;DHT22;6627;50.920;12.050;2023-01-23T09:49:46;1.80;99.90
13123;DHT22;6627;50.920;12.050;2023-01-23T09:52:23;1.80;99.90
13123;DHT22;6627;50.920;12.050;2023-01-23T09:54:58;1.80;99.90
13123;DHT22;6627;50.920;12.050;2023-01-23T09:57:33;1.80;99.90
13123;DHT22;6627;50.920;12.050;2023-01-23T10:00:12;1.90;99.90
13123;DHT22;6627;50.920;12.050;2023-01-23T10:02:44;1.90;99.90
13123;DHT22;6627;50.920;12.050;2023-01-23T10:05:12;1.90;99.90
13123;DHT22;6627;50.920;12.050;2023-01-23T10:07:50;1.80;99.90
13123;DHT22;6627;50.920;12.050;2023-01-23T10:10:39;1.90;99.90
13123;DHT22;6627;50.920;12.050;2023-01-23T10:13:17;1.90;99.90
13123;DHT22;6627;50.920;12.050;2023-01-23T10:16:00;1.90;99.90
13123;DHT22;6627;50.920;12.050;2023-01-23T10:18:41;1.90;99.90
13123;DHT22;6627;50.920;12.050;2023-01-23T10:21:20;1.90;99.90
13123;DHT22;6627;50.920;12.050;2023-01-23T10:24:02;1.90;99.90
13123;DHT22;6627;50.920;12.050;2023-01-23T10:26:42;1.90;99.90
13123;DHT22;6627;50.920;12.050;2023-01-23T10:29:16;1.90;99.90
13123;DHT22;6627;50.920;12.050;2023-01-23T10:31:55;1.90;99.90
13123;DHT22;6627;50.920;12.050;2023-01-23T10:34:34;1.90;99.90
13123;DHT22;6627;50.920;12.050;2023-01-23T10:37:14;1.90;99.90
13123;DHT22;6627;50.920;12.050;2023-01-23T10:39:48;1.90;99.90
13123;DHT22;6627;50.920;12.050;2023-01-23T10:42:21;1.90;99.90
13123;DHT22;6627;50.920;12.050;2023-01-23T10:44:51;2.00;99.90
13123;DHT22;6627;50.920;12.050;2023-01-23T10:47:20;2.00;99.90
13123;DHT22;6627;50.920;12.050;2023-01-23T10:49:55;2.00;99.90
13123;DHT22;6627;50.920;12.050;2023-01-23T10:52:34;2.00;99.90
13123;DHT22;6627;50.920;12.050;2023-01-23T10:55:03;2.00;99.90
13123;DHT22;6627;50.920;12.050;2023-01-23T10:57:42;2.00;99.90
13123;DHT22;6627;50.920;12.050;2023-01-23T11:00:20;2.10;99.90
13123;DHT22;6627;50.920;12.050;2023-01-23T11:02:53;1.90;99.90
13123;DHT22;6627;50.920;12.050;2023-01-23T11:05:37;1.90;99.90
13123;DHT22;6627;50.920;12.050;2023-01-23T11:08:21;2.00;99.90
13123;DHT22;6627;50.920;12.050;2023-01-23T11:10:51;1.90;99.90
13123;DHT22;6627;50.920;12.050;2023-01-23T11:13:27;2.00;99.90
13123;DHT22;6627;50.920;12.050;2023-01-23T11:15:55;2.00;99.90
13123;DHT22;6627;50.920;12.050;2023-01-23T11:18:31;2.00;99.90
13123;DHT22;6627;50.920;12.050;2023-01-23T11:21:02;2.00;99.90
13123;DHT22;6627;50.920;12.050;2023-01-23T11:23:30;2.00;99.90
13123;DHT22;6627;50.920;12.050;2023-01-23T11:25:59;2.00;99.90
13123;DHT22;6627;50.920;12.050;2023-01-23T11:28:31;2.00;99.90
13123;DHT22;6627;50.920;12.050;2023-01-23T11:31:04;2.00;99.90
13123;DHT22;6627;50.920;12.050;2023-01-23T11:33:41;2.00;99.90
13123;DHT22;6627;50.920;12.050;2023-01-23T11:36:30;2.00;99.90
13123;DHT22;6627;50.920;12.050;2023-01-23T11:39:11;2.00;99.90
13123;DHT22;6627;50.920;12.050;2023-01-23T11:41:47;2.00;99.90
13123;DHT22;6627;50.920;12.050;2023-01-23T11:44:16;2.00;99.90
13123;DHT22;6627;50.920;12.050;2023-01-23T11:47:03;2.00;99.90
13123;DHT22;6627;50.920;12.050;2023-01-23T11:50:02;2.10;99.90
13123;DHT22;6627;50.920;12.050;2023-01-23T11:52:46;2.10;99.90
13123;DHT22;6627;50.920;12.050;2023-01-23T12:02:04;2.10;99.90
13123;DHT22;6627;50.920;12.050;2023-01-23T12:04:59;2.10;99.90
13123;DHT22;6627;50.920;12.050;2023-01-23T12:07:48;2.10;99.90
13123;DHT22;6627;50.920;12.050;2023-01-23T12:10:27;2.10;99.90
13123;DHT22;6627;50.920;12.050;2023-01-23T12:13:12;2.10;99.90
13123;DHT22;6627;50.920;12.050;2023-01-23T12:16:00;2.10;99.90
13123;DHT22;6627;50.920;12.050;2023-01-23T12:18:42;2.00;99.90
13123;DHT22;6627;50.920;12.050;2023-01-23T12:21:24;2.10;99.90
13123;DHT22;6627;50.920;12.050;2023-01-23T12:24:08;2.10;99.90
13123;DHT22;6627;50.920;12.050;2023-01-23T12:26:56;2.00;99.90
13123;DHT22;6627;50.920;12.050;2023-01-23T12:29:45;2.10;99.90
13123;DHT22;6627;50.920;12.050;2023-01-23T12:32:39;2.10;99.90
13123;DHT22;6627;50.920;12.050;2023-01-23T12:35:25;2.10;99.90
13123;DHT22;6627;50.920;12.050;2023-01-23T12:38:13;2.10;99.90
13123;DHT22;6627;50.920;12.050;2023-01-23T12:40:52;2.20;99.90
13123;DHT22;6627;50.920;12.050;2023-01-23T12:43:37;2.10;99.90
13123;DHT22;6627;50.920;12.050;2023-01-23T12:46:11;2.10;99.90
13123;DHT22;6627;50.920;12.050;2023-01-23T12:48:44;2.20;99.90
13123;DHT22;6627;50.920;12.050;2023-01-23T12:51:19;2.20;99.90
13123;DHT22;6627;50.920;12.050;2023-01-23T12:53:51;2.20;99.90
13123;DHT22;6627;50.920;12.050;2023-01-23T12:56:26;2.20;99.90
13123;DHT22;6627;50.920;12.050;2023-01-23T12:59:04;2.20;99.90
13123;DHT22;6627;50.920;12.050;2023-01-23T13:01:45;2.10;99.90
13123;DHT22;6627;50.920;12.050;2023-01-23T13:04:35;2.10;99.90
13123;DHT22;6627;50.920;12.050;2023-01-23T13:07:22;2.20;99.90
13123;DHT22;6627;50.920;12.050;2023-01-23T13:10:17;2.10;99.90
13123;DHT22;6627;50.920;12.050;2023-01-23T13:12:55;2.10;99.90
13123;DHT22;6627;50.920;12.050;2023-01-23T13:15:31;2.10;99.90
13123;DHT22;6627;50.920;12.050;2023-01-23T13:18:01;2.00;99.90
13123;DHT22;6627;50.920;12.050;2023-01-23T13:20:30;2.10;99.90
13123;DHT22;6627;50.920;12.050;2023-01-23T13:23:24;2.10;99.90
13123;DHT22;6627;50.920;12.050;2023-01-23T13:29:03;2.20;99.90
13123;DHT22;6627;50.920;12.050;2023-01-23T13:31:39;2.20;99.90
13123;DHT22;6627;50.920;12.050;2023-01-23T13:34:35;2.20;99.90
13123;DHT22;6627;50.920;12.050;2023-01-23T13:40:20;2.10;99.90
13123;DHT22;6627;50.920;12.050;2023-01-23T13:42:48;2.10;99.90
13123;DHT22;6627;50.920;12.050;2023-01-23T13:45:32;2.10;99.90
13123;DHT22;6627;50.920;12.050;2023-01-23T13:48:30;2.10;99.90
13123;DHT22;6627;50.920;12.050;2023-01-23T13:51:27;2.00;99.90
13123;DHT22;6627;50.920;12.050;2023-01-23T13:53:54;2.10;99.90
13123;DHT22;6627;50.920;12.050;2023-01-23T13:56:39;2.00;99.90
13123;DHT22;6627;50.920;12.050;2023-01-23T13:59:19;2.00;99.90
13123;DHT22;6627;50.920;12.050;2023-01-23T14:02:00;2.00;99.90
13123;DHT22;6627;50.920;12.050;2023-01-23T14:05:03;2.00;99.90
13123;DHT22;6627;50.920;12.050;2023-01-23T14:07:41;2.00;99.90
13123;DHT22;6627;50.920;12.050;2023-01-23T14:10:21;2.10;99.90
13123;DHT22;6627;50.920;12.050;2023-01-23T14:13:01;2.00;99.90
13123;DHT22;6627;50.920;12.050;2023-01-23T14:15:31;2.00;99.90
13123;DHT22;6627;50.920;12.050;2023-01-23T14:18:28;1.90;99.90
13123;DHT22;6627;50.920;12.050;2023-01-23T14:21:02;1.90;99.90
13123;DHT22;6627;50.920;12.050;2023-01-23T14:23:37;1.90;99.90
13123;DHT22;6627;50.920;12.050;2023-01-23T14:26:12;1.90;99.90
13123;DHT22;6627;50.920;12.050;2023-01-23T14:28:53;1.90;99.90
13123;DHT22;6627;50.920;12.050;2023-01-23T14:31:24;1.90;99.90
13123;DHT22;6627;50.920;12.050;2023-01-23T14:33:59;1.90;99.90
13123;DHT22;6627;50.920;12.050;2023-01-23T14:36:29;1.90;99.90
13123;DHT22;6627;50.920;12.050;2023-01-23T14:39:00;1.90;99.90
13123;DHT22;6627;50.920;12.050;2023-01-23T14:41:31;1.90;99.90
13123;DHT22;6627;50.920;12.050;2023-01-23T14:44:02;1.80;99.90
13123;DHT22;6627;50.920;12.050;2023-01-23T14:46:36;1.80;99.90
13123;DHT22;6627;50.920;12.050;2023-01-23T14:49:08;1.80;99.90
13123;DHT22;6627;50.920;12.050;2023-01-23T14:51:36;1.90;99.90
13123;DHT22;6627;50.920;12.050;2023-01-23T14:54:05;1.80;99.90
13123;DHT22;6627;50.920;12.050;2023-01-23T14:56:44;1.80;99.90
13123;DHT22;6627;50.920;12.050;2023-01-23T14:59:20;1.80;99.90
13123;DHT22;6627;50.920;12.050;2023-01-23T15:01:53;1.90;99.90
13123;DHT22;6627;50.920;12.050;2023-01-23T15:04:24;1.90;99.90
13123;DHT22;6627;50.920;12.050;2023-01-23T15:06:55;1.80;99.90
13123;DHT22;6627;50.920;12.050;2023-01-23T15:09:27;1.80;99.90
13123;DHT22;6627;50.920;12.050;2023-01-23T15:12:03;1.90;99.90
13123;DHT22;6627;50.920;12.050;2023-01-23T15:14:35;1.80;99.90
13123;DHT22;6627;50.920;12.050;2023-01-23T15:17:05;1.80;99.90
13123;DHT22;6627;50.920;12.050;2023-01-23T15:19:41;1.80;99.90
13123;DHT22;6627;50.920;12.050;2023-01-23T15:22:18;1.80;99.90
13123;DHT22;6627;50.920;12.050;2023-01-23T15:24:47;1.80;99.90
13123;DHT22;6627;50.920;12.050;2023-01-23T15:27:26;1.80;99.90
13123;DHT22;6627;50.920;12.050;2023-01-23T15:30:29;1.80;99.90
13123;DHT22;6627;50.920;12.050;2023-01-23T15:33:04;1.70;99.90
13123;DHT22;6627;50.920;12.050;2023-01-23T15:35:49;1.70;99.90
13123;DHT22;6627;50.920;12.050;2023-01-23T15:38:17;1.70;99.90
13123;DHT22;6627;50.920;12.050;2023-01-23T15:40:44;1.70;99.90
13123;DHT22;6627;50.920;12.050;2023-01-23T15:43:14;1.70;99.90
13123;DHT22;6627;50.920;12.050;2023-01-23T15:45:44;1.70;99.90
13123;DHT22;6627;50.920;12.050;2023-01-23T15:48:11;1.70;99.90
13123;DHT22;6627;50.920;12.050;2023-01-23T15:50:38;1.70;99.90
13123;DHT22;6627;50.920;12.050;2023-01-23T15:53:11;1.70;99.90
13123;DHT22;6627;50.920;12.050;2023-01-23T15:55:40;1.70;99.90
13123;DHT22;6627;50.920;12.050;2023-01-23T15:58:10;1.70;99.90
13123;DHT22;6627;50.920;12.050;2023-01-23T16:00:39;1.70;99.90
13123;DHT22;6627;50.920;12.050;2023-01-23T16:03:06;1.70;99.90
13123;DHT22;6627;50.920;12.050;2023-01-23T16:05:36;1.70;99.90
13123;DHT22;6627;50.920;12.050;2023-01-23T16:08:05;1.70;99.90
13123;DHT22;6627;50.920;12.050;2023-01-23T16:10:45;1.70;99.90
13123;DHT22;6627;50.920;12.050;2023-01-23T16:13:13;1.80;99.90
13123;DHT22;6627;50.920;12.050;2023-01-23T16:15:40;1.80;99.90
13123;DHT22;6627;50.920;12.050;2023-01-23T16:18:08;1.70;99.90
13123;DHT22;6627;50.920;12.050;2023-01-23T16:20:37;1.70;99.90
13123;DHT22;6627;50.920;12.050;2023-01-23T16:23:27;1.70;99.90
13123;DHT22;6627;50.920;12.050;2023-01-23T16:25:55;1.70;99.90
13123;DHT22;6627;50.920;12.050;2023-01-23T16:28:23;1.70;99.90
13123;DHT22;6627;50.920;12.050;2023-01-23T16:30:52;1.70;99.90